Time;durP1;ratioP1;P1;durP2;ratioP2;P2;SDS_P1;SDS_P2;PMS_P1;PMS_P2;Temp;Humidity;BMP_temperature;BMP_pressure;BME280_temperature;BME280_humidity;BME280_pressure;Samples;Min_cycle;Max_cycle;Signal;HPM_P1;HPM_P2
2023/08/03 00:00:50;;;;;;;12.00;9.93;;;;;;;-143.21;60.90;70706.16;5111157;28;20830;-78
2023/08/03 00:03:17;;;;;;;12.38;9.73;;;;;;;-143.21;61.09;70712.09;5109326;27;20196;-77
2023/08/03 00:05:44;;;;;;;11.32;10.13;;;;;;;-143.21;61.10;70714.09;5117601;27;20204;-78
2023/08/03 00:08:12;;;;;;;14.27;10.52;;;;;;;-143.21;61.50;70727.97;5110866;27;20234;-78
2023/08/03 00:10:39;;;;;;;16.73;11.07;;;;;;;-143.21;61.89;70731.94;5110405;27;20200;-78
2023/08/03 00:13:05;;;;;;;17.17;11.38;;;;;;;-143.21;61.81;70733.91;5110798;27;20204;-79
2023/08/03 00:15:32;;;;;;;15.00;11.07;;;;;;;-143.21;61.86;70737.88;5121530;27;20207;-79
2023/08/03 00:17:59;;;;;;;15.63;10.88;;;;;;;-143.21;61.97;70729.94;5126542;27;20272;-79
2023/08/03 00:20:26;;;;;;;15.35;11.45;;;;;;;-143.21;61.52;70724.00;5128142;27;20204;-78
2023/08/03 00:22:53;;;;;;;21.05;11.93;;;;;;;-143.21;61.78;70718.06;5114393;27;20265;-79
2023/08/03 00:25:21;;;;;;;17.55;11.93;;;;;;;-143.21;61.49;70712.09;5111376;27;20207;-80
2023/08/03 00:27:48;;;;;;;16.70;11.38;;;;;;;-143.21;62.20;70739.84;5111873;27;20577;-80
2023/08/03 00:30:15;;;;;;;15.13;11.13;;;;;;;-143.21;62.57;70751.75;5112030;27;20650;-80
2023/08/03 00:32:42;;;;;;;17.88;11.32;;;;;;;-143.21;62.46;70753.72;5118420;27;20252;-81
2023/08/03 00:35:10;;;;;;;16.65;11.38;;;;;;;-143.21;62.82;70755.72;5121524;27;20204;-81
2023/08/03 00:37:38;;;;;;;22.58;11.32;;;;;;;-143.21;63.04;70755.72;5111350;28;20653;-81
2023/08/03 00:40:06;;;;;;;16.63;11.65;;;;;;;-143.21;62.91;70765.63;5111444;27;20297;-82
2023/08/03 00:42:34;;;;;;;17.88;12.02;;;;;;;-143.21;63.07;70771.56;5111982;27;20208;-81
2023/08/03 00:45:01;;;;;;;17.55;10.80;;;;;;;-143.21;62.41;70765.63;5111658;27;20345;-81
2023/08/03 00:47:28;;;;;;;16.65;10.20;;;;;;;-143.21;61.57;70775.53;5116753;27;20646;-81
2023/08/03 00:49:55;;;;;;;13.30;10.25;;;;;;;-143.21;61.91;70779.50;5123027;27;20559;-81
2023/08/03 00:52:23;;;;;;;14.00;10.52;;;;;;;-143.21;62.28;70783.47;5111038;27;20231;-80
2023/08/03 00:54:50;;;;;;;12.73;9.27;;;;;;;-143.21;62.21;70783.47;5110879;27;20196;-80
2023/08/03 00:57:16;;;;;;;15.13;11.18;;;;;;;-143.21;62.65;70779.50;5111547;27;20232;-80
2023/08/03 00:59:45;;;;;;;14.88;10.38;;;;;;;-143.21;61.86;70775.53;5111320;27;20219;-79
2023/08/03 01:02:12;;;;;;;18.33;11.00;;;;;;;-143.21;61.96;70765.63;5110626;27;20208;-80
2023/08/03 01:04:38;;;;;;;17.63;12.10;;;;;;;-143.21;62.74;70765.63;5110511;27;20911;-80
2023/08/03 01:07:06;;;;;;;23.60;13.07;;;;;;;-143.21;62.94;70773.56;5106591;28;20196;-80
2023/08/03 01:09:33;;;;;;;15.27;11.10;;;;;;;-143.21;62.62;70781.50;5110477;27;20674;-80
2023/08/03 01:12:00;;;;;;;18.02;13.00;;;;;;;-143.21;62.91;70781.50;5110060;27;20204;-81
2023/08/03 01:14:27;;;;;;;19.45;12.77;;;;;;;-143.21;63.07;70781.50;5110799;27;20211;-81
2023/08/03 01:16:55;;;;;;;21.40;12.82;;;;;;;-143.21;63.28;70779.50;5110595;27;20310;-80
2023/08/03 01:19:23;;;;;;;15.68;12.75;;;;;;;-143.21;63.49;70779.50;5110132;27;20251;-80
2023/08/03 01:21:51;;;;;;;19.10;13.05;;;;;;;-143.21;63.34;70787.44;5095337;28;20207;-81
2023/08/03 01:24:20;;;;;;;20.90;13.50;;;;;;;-143.21;63.38;70795.38;5117684;27;20215;-80
2023/08/03 01:26:47;;;;;;;20.90;14.18;;;;;;;-143.21;63.46;70805.28;5125325;27;20199;-80
2023/08/03 01:29:15;;;;;;;18.15;12.07;;;;;;;-143.21;63.04;70809.25;5109587;27;20332;-82
2023/08/03 01:31:42;;;;;;;17.42;10.77;;;;;;;-143.21;63.15;70819.16;5110589;28;20204;-80
2023/08/03 01:34:13;;;;;;;17.88;13.18;;;;;;;-143.21;64.12;70837.00;5110476;27;20200;-81
2023/08/03 01:36:39;;;;;;;15.88;12.38;;;;;;;-143.21;64.12;70823.13;5110610;27;20222;-81
2023/08/03 01:39:08;;;;;;;17.13;12.07;;;;;;;-143.21;64.37;70829.06;5110354;28;20666;-80
2023/08/03 01:41:37;;;;;;;17.33;12.32;;;;;;;-143.21;64.12;70829.06;5110446;27;20201;-80
2023/08/03 01:44:26;;;;;;;15.80;12.15;;;;;;;-143.21;64.64;70835.00;5109699;28;20264;-80
2023/08/03 01:46:54;;;;;;;18.15;12.27;;;;;;;-143.21;64.44;70833.03;5093517;28;20284;-81
2023/08/03 01:49:22;;;;;;;15.23;12.40;;;;;;;-143.21;64.84;70844.91;5110094;27;20199;-80
2023/08/03 01:51:49;;;;;;;21.10;12.50;;;;;;;-143.21;65.11;70842.94;5118575;27;20234;-80
2023/08/03 01:54:16;;;;;;;18.33;12.23;;;;;;;-143.21;65.23;70848.88;5110065;28;20211;-80
2023/08/03 01:56:44;;;;;;;21.27;12.23;;;;;;;-143.21;65.42;70858.78;5110103;28;20226;-80
2023/08/03 01:59:11;;;;;;;15.85;12.38;;;;;;;-143.21;65.39;70858.78;5110048;28;20207;-79
2023/08/03 02:01:38;;;;;;;20.48;12.70;;;;;;;-143.21;65.48;70860.78;5109618;28;20192;-79
2023/08/03 02:04:06;;;;;;;17.73;12.52;;;;;;;-143.21;65.43;70858.78;5108874;28;20299;-79
2023/08/03 02:06:33;;;;;;;18.75;12.23;;;;;;;-143.21;65.31;70848.88;5123393;27;20215;-79
2023/08/03 02:09:00;;;;;;;22.48;12.80;;;;;;;-143.21;65.09;70848.88;5113726;27;20204;-79
2023/08/03 02:11:27;;;;;;;15.90;11.93;;;;;;;-143.21;65.41;70850.88;5113228;27;20242;-79
2023/08/03 02:13:55;;;;;;;18.23;12.93;;;;;;;-143.21;65.12;70846.91;5114703;27;20609;-78
2023/08/03 02:16:22;;;;;;;16.70;12.50;;;;;;;-143.21;65.84;70874.66;5120522;27;20203;-77
2023/08/03 02:18:49;;;;;;;17.73;12.60;;;;;;;-143.21;66.47;70894.47;5130196;27;20210;-79
2023/08/03 02:21:16;;;;;;;21.33;13.48;;;;;;;-143.21;67.04;70902.41;5121690;27;20210;-78
2023/08/03 02:23:42;;;;;;;19.98;13.60;;;;;;;-143.21;67.37;70914.31;5113611;27;20204;-78
2023/08/03 02:26:09;;;;;;;22.15;13.32;;;;;;;-143.21;67.62;70914.31;5128563;27;20206;-78
2023/08/03 02:28:36;;;;;;;18.92;13.05;;;;;;;-143.21;67.79;70916.28;5115133;27;20206;-78
2023/08/03 02:31:04;;;;;;;20.48;13.70;;;;;;;-143.21;67.66;70914.31;5114030;27;20200;-78
2023/08/03 02:33:31;;;;;;;19.17;13.27;;;;;;;-143.21;68.14;70928.19;5114230;27;20203;-78
2023/08/03 02:35:58;;;;;;;19.67;12.68;;;;;;;-143.21;68.29;70932.13;5113258;27;20200;-77
2023/08/03 02:38:24;;;;;;;21.77;13.80;;;;;;;-143.21;68.24;70940.06;5113773;27;20717;-80
2023/08/03 02:40:51;;;;;;;18.48;13.23;;;;;;;-143.21;68.04;70938.09;5114125;27;20204;-80
2023/08/03 02:43:18;;;;;;;19.73;13.32;;;;;;;-143.21;68.24;70930.16;5121915;27;20207;-80
2023/08/03 02:45:45;;;;;;;18.20;14.23;;;;;;;-143.21;68.13;70926.19;5113157;27;20203;-80
2023/08/03 02:48:13;;;;;;;19.15;13.10;;;;;;;-143.21;68.11;70926.19;5113774;27;20196;-80
2023/08/03 02:50:40;;;;;;;19.25;13.48;;;;;;;-143.21;68.08;70928.19;5113389;27;20620;-80
2023/08/03 02:53:07;;;;;;;24.88;14.93;;;;;;;-143.21;68.02;70930.16;5108094;27;20227;-80
2023/08/03 02:55:33;;;;;;;23.70;13.77;;;;;;;-143.21;68.26;70936.09;5113701;27;20208;-80
2023/08/03 02:58:00;;;;;;;22.48;14.05;;;;;;;-143.21;68.52;70948.00;5113953;27;20231;-80
2023/08/03 03:00:27;;;;;;;21.98;14.18;;;;;;;-143.21;69.00;70961.88;5113744;28;20206;-81
2023/08/03 03:02:54;;;;;;;20.40;12.95;;;;;;;-143.21;69.13;70961.88;5113586;27;20208;-81
2023/08/03 03:05:22;;;;;;;19.88;12.60;;;;;;;-143.21;68.98;70963.84;5118542;27;20278;-80
2023/08/03 03:07:48;;;;;;;24.20;14.43;;;;;;;-143.21;69.13;70967.81;5121178;27;20191;-80
2023/08/03 03:10:14;;;;;;;23.48;13.45;;;;;;;-143.21;69.17;70975.75;5115056;27;20204;-80
2023/08/03 03:12:41;;;;;;;22.58;13.23;;;;;;;-143.21;69.50;70979.72;5104466;27;20211;-80
2023/08/03 03:15:09;;;;;;;28.20;14.65;;;;;;;-143.21;69.58;70981.69;5119497;27;20642;-79
2023/08/03 03:17:36;;;;;;;22.17;15.40;;;;;;;-143.21;69.05;70967.81;5129392;27;20223;-78
2023/08/03 03:20:03;;;;;;;26.60;16.13;;;;;;;-143.21;68.44;70951.97;5117444;27;21005;-78
2023/08/03 03:22:31;;;;;;;24.00;15.98;;;;;;;-143.21;67.97;70936.09;5112357;28;20211;-78
2023/08/03 03:24:58;;;;;;;25.05;13.95;;;;;;;-143.21;67.58;70926.19;5117316;27;20214;-78
2023/08/03 03:27:25;;;;;;;20.15;13.48;;;;;;;-143.21;67.37;70932.13;5115556;27;20802;-78
2023/08/03 03:29:52;;;;;;;20.08;13.02;;;;;;;-143.21;67.51;70936.09;5116166;27;20770;-78
2023/08/03 03:32:18;;;;;;;17.33;12.70;;;;;;;-143.21;67.39;70940.06;5116489;27;20296;-78
2023/08/03 03:34:45;;;;;;;19.15;12.43;;;;;;;-143.21;67.71;70951.97;5114954;27;20215;-78
2023/08/03 03:37:12;;;;;;;17.63;12.82;;;;;;;-143.21;67.52;70948.00;5125863;27;20243;-78
2023/08/03 03:39:40;;;;;;;23.70;13.55;;;;;;;-143.21;67.58;70949.97;5112461;27;20628;-78
2023/08/03 03:42:07;;;;;;;17.70;13.35;;;;;;;-143.21;67.75;70961.88;5112283;27;20216;-78
2023/08/03 03:44:34;;;;;;;22.15;13.23;;;;;;;-143.21;67.91;70961.88;5112126;27;20226;-78
2023/08/03 03:47:01;;;;;;;17.63;12.65;;;;;;;-143.21;67.91;70971.78;5111958;27;20208;-77
2023/08/03 03:49:28;;;;;;;18.00;12.75;;;;;;;-143.21;68.12;70975.75;5111126;27;20705;-78
2023/08/03 03:51:55;;;;;;;25.38;12.57;;;;;;;-143.21;68.22;70971.78;5112098;27;20227;-79
2023/08/03 03:54:21;;;;;;;16.67;12.93;;;;;;;-143.21;68.12;70979.72;5112454;28;20208;-79
2023/08/03 03:56:50;;;;;;;18.63;12.68;;;;;;;-143.21;68.79;70989.63;5112133;27;20211;-79
2023/08/03 03:59:16;;;;;;;19.13;13.20;;;;;;;-143.21;68.69;70991.63;5111528;27;21050;-78
2023/08/03 04:01:43;;;;;;;17.05;12.73;;;;;;;-143.21;68.84;70991.63;5127792;27;20287;-79
2023/08/03 04:04:10;;;;;;;19.50;12.95;;;;;;;-143.21;69.05;70987.66;5111788;27;20239;-79
2023/08/03 04:06:37;;;;;;;22.42;14.02;;;;;;;-143.21;68.68;70981.69;5111919;28;20203;-80
2023/08/03 04:09:04;;;;;;;27.88;14.95;;;;;;;-143.21;68.48;70975.75;5111550;27;20606;-79
2023/08/03 04:11:31;;;;;;;21.42;13.38;;;;;;;-143.21;68.58;70979.72;5114622;27;20250;-79
2023/08/03 04:13:59;;;;;;;22.75;13.50;;;;;;;-143.21;68.70;70981.69;5111554;27;20211;-82
2023/08/03 04:16:26;;;;;;;18.08;12.35;;;;;;;-143.21;68.49;70985.66;5111784;27;20207;-79
2023/08/03 04:18:53;;;;;;;14.07;11.32;;;;;;;-143.21;68.62;70995.56;5112228;27;20220;-79
2023/08/03 04:21:19;;;;;;;18.92;11.23;;;;;;;-143.21;68.71;70995.56;5113649;27;20651;-79
2023/08/03 04:23:46;;;;;;;17.15;11.57;;;;;;;-143.21;68.60;70991.63;5109514;27;20721;-79
2023/08/03 04:26:13;;;;;;;15.57;11.13;;;;;;;-143.21;68.19;70989.63;5110252;27;20200;-80
2023/08/03 04:28:42;;;;;;;16.88;11.93;;;;;;;-143.21;68.32;70991.63;5109146;27;20651;-81
2023/08/03 04:31:10;;;;;;;15.50;11.93;;;;;;;-143.21;68.49;70987.66;5112396;27;20204;-81
2023/08/03 04:33:37;;;;;;;18.52;12.48;;;;;;;-143.21;68.66;70989.63;5109761;27;20207;-81
2023/08/03 04:36:04;;;;;;;16.27;11.30;;;;;;;-143.21;68.63;70987.66;5123685;27;20211;-81
2023/08/03 04:38:31;;;;;;;14.63;11.57;;;;;;;-143.21;68.63;70987.66;5111969;27;20716;-81
2023/08/03 04:41:00;;;;;;;18.20;11.95;;;;;;;-143.21;68.51;70983.69;5108699;27;20204;-80
2023/08/03 04:43:27;;;;;;;18.48;11.48;;;;;;;-143.21;68.12;70979.72;5122550;27;20206;-79
2023/08/03 04:45:54;;;;;;;12.52;11.10;;;;;;;-143.21;67.85;70971.78;5111102;27;20202;-80
2023/08/03 04:48:23;;;;;;;15.57;11.68;;;;;;;-143.21;68.04;70975.75;5109561;27;20822;-79
2023/08/03 04:50:49;;;;;;;18.73;12.48;;;;;;;-143.21;67.99;70983.69;5122432;27;20207;-78
2023/08/03 04:53:16;;;;;;;13.68;11.43;;;;;;;-143.21;68.21;70983.69;5112890;27;20204;-80
2023/08/03 04:55:44;;;;;;;16.25;11.98;;;;;;;-143.21;68.10;70983.69;5111307;28;20245;-81
2023/08/03 04:58:11;;;;;;;14.75;12.18;;;;;;;-143.21;68.39;70985.66;5110569;28;20228;-80
2023/08/03 05:00:38;;;;;;;15.60;11.65;;;;;;;-143.21;68.09;70981.69;5110621;28;20211;-80
2023/08/03 05:03:05;;;;;;;14.27;11.68;;;;;;;-143.21;68.08;70983.69;5110320;28;20607;-80
2023/08/03 05:05:33;;;;;;;16.98;12.13;;;;;;;-143.21;68.04;70983.69;5110584;28;20200;-81
2023/08/03 05:08:00;;;;;;;14.95;11.73;;;;;;;-143.21;68.32;70985.66;5109417;27;20199;-79
2023/08/03 05:10:27;;;;;;;19.60;12.40;;;;;;;-143.21;67.84;70983.69;5112254;27;20204;-81
2023/08/03 05:12:54;;;;;;;21.15;13.25;;;;;;;-143.21;67.75;70991.63;5108973;27;20564;-79
2023/08/03 05:15:20;;;;;;;16.65;11.93;;;;;;;-143.21;67.33;70953.94;5113250;27;20210;-79
2023/08/03 05:17:49;;;;;;;15.18;12.70;;;;;;;-143.21;66.09;70914.31;5108421;27;20239;-78
2023/08/03 05:20:16;;;;;;;17.65;12.35;;;;;;;-143.21;65.38;70906.38;5114544;27;20310;-78
2023/08/03 05:22:44;;;;;;;17.17;11.98;;;;;;;-143.21;65.32;70904.38;5117046;27;20200;-78
2023/08/03 05:25:11;;;;;;;19.70;12.82;;;;;;;-143.21;65.77;70914.31;5098992;27;20208;-80
2023/08/03 05:27:38;;;;;;;16.30;12.63;;;;;;;-143.21;65.96;70926.19;5114459;27;20207;-80
2023/08/03 05:30:08;;;;;;;19.00;12.50;;;;;;;-143.21;66.06;70928.19;5118500;27;20265;-79
2023/08/03 05:32:35;;;;;;;18.83;13.13;;;;;;;-143.21;66.29;70928.19;5114063;27;20203;-79
2023/08/03 05:35:02;;;;;;;17.52;12.45;;;;;;;-143.21;66.71;70926.19;5109288;27;20211;-79
2023/08/03 05:37:29;;;;;;;24.50;12.88;;;;;;;-143.21;66.73;70930.16;5107962;27;20588;-79
2023/08/03 05:39:57;;;;;;;15.13;12.10;;;;;;;-143.21;66.75;70920.25;5107369;27;20570;-80
2023/08/03 05:42:25;;;;;;;15.65;12.27;;;;;;;-143.21;66.59;70916.28;5107625;28;20204;-80
2023/08/03 05:44:53;;;;;;;19.38;13.23;;;;;;;-143.21;66.65;70906.38;5108167;27;20215;-79
2023/08/03 05:47:19;;;;;;;18.13;12.90;;;;;;;-143.21;66.43;70902.41;5107612;28;20659;-80
2023/08/03 05:49:46;;;;;;;15.10;11.82;;;;;;;-143.21;66.04;70896.47;5109507;27;20250;-79
2023/08/03 05:52:13;;;;;;;16.08;13.10;;;;;;;-143.21;65.45;70886.53;5108335;28;20239;-79
2023/08/03 05:54:40;;;;;;;22.15;13.50;;;;;;;-143.21;65.09;70880.59;5108205;28;20200;-78
2023/08/03 05:57:12;;;;;;;19.80;14.90;;;;;;;-143.21;64.33;70868.72;5107978;28;20204;-79
2023/08/03 05:59:40;;;;;;;21.60;14.15;;;;;;;-143.21;64.01;70844.91;5107669;28;20267;-79
2023/08/03 06:02:20;;;;;;;21.42;15.20;;;;;;;-143.21;62.94;70815.19;5108008;28;20291;-79
2023/08/03 06:04:47;;;;;;;22.50;14.75;;;;;;;-143.21;62.44;70799.31;5108091;28;20295;-79
2023/08/03 06:07:15;;;;;;;24.05;15.40;;;;;;;-143.21;62.51;70807.25;5107516;28;20207;-79
2023/08/03 06:09:41;;;;;;;23.05;14.85;;;;;;;-143.21;63.00;70819.16;5108934;28;20235;-79
2023/08/03 06:12:15;;;;;;;17.65;13.27;;;;;;;-143.21;63.36;70819.16;5110956;28;20211;-81
2023/08/03 06:14:41;;;;;;;22.67;13.77;;;;;;;-143.21;63.54;70819.16;5111341;28;20265;-80
2023/08/03 06:17:10;;;;;;;23.95;15.05;;;;;;;-143.21;62.92;70823.13;5108332;28;20199;-79
2023/08/03 06:19:37;;;;;;;20.63;14.43;;;;;;;-143.21;62.83;70809.25;5109052;27;20228;-80
2023/08/03 06:22:09;;;;;;;17.65;14.13;;;;;;;-143.21;62.78;70809.25;5108254;28;20199;-80
2023/08/03 06:24:36;;;;;;;21.75;13.90;;;;;;;-143.21;62.73;70801.31;5106623;28;20274;-80
2023/08/03 06:27:06;;;;;;;20.88;13.80;;;;;;;-143.21;62.57;70795.38;5104055;28;20499;-80
2023/08/03 06:29:35;;;;;;;18.13;13.57;;;;;;;-143.21;61.82;70777.53;5108191;28;20207;-79
2023/08/03 06:32:05;;;;;;;17.75;12.82;;;;;;;-143.21;61.49;70769.59;5117172;28;20204;-80
2023/08/03 06:34:35;;;;;;;23.50;13.65;;;;;;;-143.21;61.10;70761.66;5108122;28;20213;-79
2023/08/03 06:37:02;;;;;;;23.30;14.15;;;;;;;-143.21;60.76;70749.78;5107787;28;20207;-81
2023/08/03 06:39:34;;;;;;;20.55;15.05;;;;;;;-143.21;60.76;70733.91;5107771;28;20724;-81
2023/08/03 06:42:02;;;;;;;19.63;13.18;;;;;;;-143.21;59.34;70696.25;5108268;28;20938;-82
2023/08/03 06:44:30;;;;;;;14.52;12.45;;;;;;;-143.21;58.60;70670.47;5109470;28;20243;-82
2023/08/03 06:46:59;;;;;;;17.38;12.80;;;;;;;-143.21;57.09;70652.66;5125201;27;20235;-82
2023/08/03 06:49:25;;;;;;;18.38;13.20;;;;;;;-143.21;57.16;70656.59;5107762;28;20216;-82
2023/08/03 06:51:52;;;;;;;17.50;12.68;;;;;;;-143.21;56.76;70656.59;5107415;28;20243;-82
2023/08/03 06:54:20;;;;;;;20.67;13.85;;;;;;;-143.21;56.75;70648.69;5127964;27;20678;-82
2023/08/03 06:56:47;;;;;;;21.88;13.25;;;;;;;-143.21;56.99;70640.75;5111175;27;20227;-82
2023/08/03 06:59:20;;;;;;;23.40;12.65;;;;;;;-143.21;56.92;70634.81;5111489;27;20219;-82
2023/08/03 07:01:48;;;;;;;18.92;12.43;;;;;;;-143.21;55.77;70636.78;5112122;27;20836;-84
2023/08/03 07:04:19;;;;;;;18.77;12.45;;;;;;;-143.21;55.73;70634.81;5111166;27;20235;-82
2023/08/03 07:06:47;;;;;;;21.77;13.63;;;;;;;-143.21;55.93;70605.06;5111020;27;20214;-82
2023/08/03 07:09:14;;;;;;;22.75;12.60;;;;;;;-143.21;54.56;70607.06;5124191;27;20272;-82
2023/08/03 07:11:41;;;;;;;19.20;13.02;;;;;;;-143.21;55.61;70593.19;5112439;27;20205;-81
2023/08/03 07:14:09;;;;;;;20.08;13.70;;;;;;;-143.21;56.24;70591.19;5111100;28;20189;-82
2023/08/03 07:16:36;;;;;;;18.80;13.05;;;;;;;-143.21;55.00;70579.31;5110010;28;20199;-81
2023/08/03 07:19:06;;;;;;;15.00;12.55;;;;;;;-143.21;55.18;70567.41;5112673;27;20645;-82
2023/08/03 07:21:34;;;;;;;16.67;13.13;;;;;;;-143.21;54.74;70543.63;5110667;27;20287;-81
2023/08/03 07:24:02;;;;;;;15.75;11.80;;;;;;;-143.21;53.01;70533.72;5111326;27;20273;-82
2023/08/03 07:26:29;;;;;;;23.60;13.35;;;;;;;-143.21;54.22;70525.78;5111087;27;20722;-81
2023/08/03 07:28:57;;;;;;;21.00;12.68;;;;;;;-143.21;53.44;70529.75;5110159;27;20283;-82
2023/08/03 07:31:24;;;;;;;23.77;12.75;;;;;;;-143.21;54.41;70525.78;5110742;27;20253;-82
2023/08/03 07:33:54;;;;;;;19.95;11.20;;;;;;;-143.21;49.39;70541.63;5110698;27;20203;-82
2023/08/03 07:36:20;;;;;;;18.38;12.70;;;;;;;-143.21;52.73;70523.81;5110430;27;20199;-82
2023/08/03 07:38:49;;;;;;;20.95;13.48;;;;;;;-143.21;53.35;70511.91;5109160;27;20226;-82
2023/08/03 07:41:16;;;;;;;18.33;12.73;;;;;;;-143.21;53.75;70496.06;5110968;27;20211;-82
2023/08/03 07:43:43;;;;;;;17.65;12.77;;;;;;;-143.21;52.65;70490.09;5121216;27;20261;-81
2023/08/03 07:46:10;;;;;;;18.63;12.05;;;;;;;-143.21;52.50;70474.25;5112739;27;20625;-81
2023/08/03 07:48:37;;;;;;;23.30;12.85;;;;;;;-143.21;53.14;70464.34;5111131;27;20344;-85
2023/08/03 07:51:12;;;;;;;17.05;12.68;;;;;;;-143.21;52.35;70452.44;5112060;27;20823;-80
2023/08/03 07:53:39;;;;;;;16.02;12.52;;;;;;;-143.21;52.21;70454.44;5111251;27;20260;-80
2023/08/03 07:56:14;;;;;;;18.13;13.70;;;;;;;-143.21;52.39;70444.53;5110168;27;20214;-80
2023/08/03 07:58:41;;;;;;;17.23;12.20;;;;;;;-143.21;51.71;70418.75;5109793;27;20220;-81
2023/08/03 08:01:08;;;;;;;23.30;12.88;;;;;;;-143.21;51.02;70394.97;5109638;28;20203;-81
2023/08/03 08:03:35;;;;;;;19.50;13.93;;;;;;;-143.21;51.25;70377.13;5110220;27;20208;-80
2023/08/03 08:06:06;;;;;;;19.08;14.13;;;;;;;-143.21;50.90;70371.19;5109763;27;20639;-81
2023/08/03 08:08:33;;;;;;;17.08;12.95;;;;;;;-143.21;50.31;70371.19;5121467;27;20252;-80
2023/08/03 08:11:00;;;;;;;17.27;13.40;;;;;;;-143.21;50.68;70363.25;5110006;28;20200;-79
2023/08/03 08:13:28;;;;;;;18.77;12.27;;;;;;;-143.21;50.11;70371.19;5109830;27;20206;-82
2023/08/03 08:16:00;;;;;;;15.20;12.93;;;;;;;-143.21;49.21;70371.19;5108982;27;20192;-81
2023/08/03 08:18:26;;;;;;;17.27;12.63;;;;;;;-143.21;49.28;70377.13;5109164;27;20278;-83
2023/08/03 08:20:55;;;;;;;17.55;12.15;;;;;;;-143.21;49.84;70389.03;5108942;27;20204;-84
2023/08/03 08:23:22;;;;;;;17.23;13.60;;;;;;;-143.21;50.22;70373.16;5109786;27;20287;-83
2023/08/03 08:25:49;;;;;;;19.10;11.95;;;;;;;-143.21;47.06;70343.44;5109896;27;20208;-84
2023/08/03 08:28:16;;;;;;;17.27;11.60;;;;;;;-143.21;47.71;70343.44;5121624;27;20400;-85
2023/08/03 08:30:45;;;;;;;15.52;11.98;;;;;;;-143.21;48.15;70333.53;5115703;27;20200;-84
2023/08/03 08:33:12;;;;;;;15.75;12.15;;;;;;;-143.21;48.44;70323.63;5109618;27;20250;-84
2023/08/03 08:35:39;;;;;;;15.27;12.57;;;;;;;-143.21;48.61;70321.63;5108705;27;20215;-85
2023/08/03 08:38:05;;;;;;;17.52;12.57;;;;;;;-143.21;48.84;70313.72;5110234;27;20231;-84
2023/08/03 08:40:35;;;;;;;19.55;11.90;;;;;;;-143.21;47.35;70303.78;5107252;27;20674;-84
2023/08/03 08:43:02;;;;;;;13.45;11.20;;;;;;;-143.21;46.20;70309.75;5110478;27;20196;-84
2023/08/03 08:45:31;;;;;;;13.73;11.00;;;;;;;-143.21;46.36;70337.50;5111355;27;20231;-84
2023/08/03 08:47:59;;;;;;;14.95;11.35;;;;;;;-143.21;45.53;70335.50;5109143;27;20227;-85
2023/08/03 08:50:27;;;;;;;17.90;11.60;;;;;;;-143.21;48.31;70353.34;5109741;27;20838;-81
2023/08/03 08:52:54;;;;;;;12.68;11.32;;;;;;;-143.21;47.53;70323.63;5110081;27;20236;-81
2023/08/03 08:55:23;;;;;;;13.98;11.52;;;;;;;-143.21;47.88;70309.75;5109494;27;20200;-82
2023/08/03 08:57:50;;;;;;;15.88;11.70;;;;;;;-143.21;46.51;70303.78;5110722;27;20253;-82
2023/08/03 09:00:19;;;;;;;14.18;11.38;;;;;;;-143.21;47.74;70293.88;5110057;27;20223;-81
2023/08/03 09:02:46;;;;;;;13.95;11.55;;;;;;;-143.21;46.61;70256.22;5110279;28;20204;-84
2023/08/03 09:05:16;;;;;;;14.80;11.93;;;;;;;-143.21;46.18;70262.19;5110556;27;20204;-84
2023/08/03 09:07:43;;;;;;;14.85;11.65;;;;;;;-143.21;43.83;70278.03;5109379;27;20711;-84
2023/08/03 09:10:11;;;;;;;16.33;12.02;;;;;;;-143.21;44.77;70266.13;5110243;27;20200;-84
2023/08/03 09:12:39;;;;;;;17.20;11.80;;;;;;;-143.21;45.71;70293.88;5111097;27;20200;-85
2023/08/03 09:15:07;;;;;;;18.02;12.88;;;;;;;-143.21;46.19;70262.19;5112058;27;20204;-82
2023/08/03 09:17:35;;;;;;;15.65;11.50;;;;;;;-143.21;43.31;70250.28;5114941;27;20660;-82
2023/08/03 09:20:02;;;;;;;23.52;15.45;;;;;;;-143.21;46.07;70220.56;5121668;27;20583;-82
2023/08/03 09:22:41;;;;;;;19.73;13.52;;;;;;;-143.21;44.72;70137.31;5110659;27;20204;-82
2023/08/03 09:25:09;;;;;;;18.80;11.90;;;;;;;-143.21;43.38;70121.47;5109787;27;20203;-82
2023/08/03 09:27:37;;;;;;;13.90;11.38;;;;;;;-143.21;43.53;70093.72;5110816;27;20200;-81
2023/08/03 09:30:06;;;;;;;17.00;12.80;;;;;;;-143.21;43.93;70046.16;5110541;27;20200;-81
2023/08/03 09:32:34;;;;;;;15.10;11.70;;;;;;;-143.21;42.64;70016.41;5115351;27;20203;-82
2023/08/03 09:35:01;;;;;;;18.75;11.88;;;;;;;-143.21;42.71;69976.78;5120669;27;20592;-80
2023/08/03 09:37:37;;;;;;;18.90;11.32;;;;;;;-143.21;42.25;69941.13;5110543;27;20535;-80
2023/08/03 09:40:05;;;;;;;19.15;12.07;;;;;;;-143.21;41.83;69919.31;5109369;28;20604;-80
2023/08/03 09:42:32;;;;;;;16.27;11.65;;;;;;;-143.21;41.24;69901.47;5109709;27;20188;-81
2023/08/03 09:45:01;;;;;;;16.45;12.07;;;;;;;-143.21;41.41;69873.72;5109569;27;20245;-81
2023/08/03 09:47:28;;;;;;;19.88;11.82;;;;;;;-143.21;41.05;69855.91;5108721;28;20691;-80
2023/08/03 09:49:56;;;;;;;15.40;11.18;;;;;;;-143.21;40.46;69832.13;5109519;28;20601;-80
2023/08/03 09:52:26;;;;;;;13.80;12.05;;;;;;;-143.21;39.94;69812.28;5109374;28;20328;-80
2023/08/03 09:55:06;;;;;;;18.30;12.18;;;;;;;-143.21;39.94;69867.78;5113408;27;20211;-80
2023/08/03 09:57:39;;;;;;;12.95;11.57;;;;;;;-143.21;40.73;69911.38;5119845;27;20208;-80
2023/08/03 10:00:08;;;;;;;17.13;12.57;;;;;;;-143.21;41.30;69883.63;5109462;28;20215;-80
2023/08/03 10:02:44;;;;;;;14.02;11.38;;;;;;;-143.21;40.75;69834.09;5112840;27;20211;-80
2023/08/03 10:05:18;;;;;;;13.63;12.10;;;;;;;-143.21;40.07;69830.13;5109587;28;20207;-80
2023/08/03 10:07:50;;;;;;;12.95;11.65;;;;;;;-143.21;40.12;69806.34;5116822;28;20198;-80
2023/08/03 10:10:23;;;;;;;18.73;12.55;;;;;;;-143.21;40.07;69760.78;5118208;28;20200;-80
2023/08/03 10:13:03;;;;;;;16.05;11.70;;;;;;;-143.21;39.22;69711.22;5109097;28;20215;-80
2023/08/03 10:15:31;;;;;;;13.40;11.98;;;;;;;-143.21;38.86;69691.41;5108854;28;20235;-80
2023/08/03 10:17:59;;;;;;;14.38;11.55;;;;;;;-143.21;38.15;69671.59;5113851;27;20196;-80
2023/08/03 10:20:27;;;;;;;15.18;12.18;;;;;;;-143.21;37.92;69655.75;5108825;28;20224;-81
2023/08/03 10:23:11;;;;;;;15.93;11.93;;;;;;;-143.21;38.33;69641.88;5108192;28;20246;-80
2023/08/03 10:26:03;;;;;;;18.02;11.93;;;;;;;-143.21;37.46;69628.00;5109752;28;20211;-80
2023/08/03 10:28:47;;;;;;;15.82;11.90;;;;;;;-143.21;37.39;69590.34;5094909;27;20207;-80
2023/08/03 10:31:16;;;;;;;14.48;11.55;;;;;;;-143.21;36.48;69568.56;5113329;27;20195;-80
2023/08/03 10:34:07;;;;;;;13.13;11.00;;;;;;;-143.21;36.51;69564.59;5113383;27;20207;-81
2023/08/03 10:36:47;;;;;;;14.13;11.65;;;;;;;-143.21;36.15;69554.69;5113189;27;20211;-80
2023/08/03 10:39:16;;;;;;;20.35;12.23;;;;;;;-143.21;36.44;69544.78;5125189;27;20735;-81
2023/08/03 10:41:46;;;;;;;12.68;11.43;;;;;;;-143.21;36.07;69530.91;5129761;27;20195;-81
2023/08/03 10:44:26;;;;;;;14.93;11.45;;;;;;;-143.21;36.59;69513.06;5113659;27;20194;-81
2023/08/03 10:46:55;;;;;;;18.83;11.10;;;;;;;-143.21;35.66;69497.22;5109949;27;20319;-81
2023/08/03 10:49:50;;;;;;;12.60;10.85;;;;;;;-143.21;36.05;69509.13;5106702;27;20210;-81
2023/08/03 10:52:19;;;;;;;12.18;10.98;;;;;;;-143.21;35.83;69491.28;5112712;27;20236;-81
2023/08/03 10:54:47;;;;;;;11.77;10.55;;;;;;;-143.21;34.69;69467.50;5115475;27;20204;-81
2023/08/03 10:57:18;;;;;;;12.90;10.57;;;;;;;-143.21;34.52;69467.50;5120496;27;20200;-81
2023/08/03 10:59:47;;;;;;;13.10;10.27;;;;;;;-143.21;34.81;69459.56;5119411;27;20306;-81
2023/08/03 11:02:15;;;;;;;16.00;10.30;;;;;;;-143.21;34.54;69419.94;5111847;27;20725;-81
2023/08/03 11:04:42;;;;;;;11.55;10.25;;;;;;;-143.21;34.08;69425.88;5113862;27;20204;-82
2023/08/03 11:07:10;;;;;;;12.38;9.95;;;;;;;-143.21;33.35;69412.03;5112229;27;20294;-80